createdAt,value
2019-01-17T00:01:11.576Z,9.28
2019-01-17T00:03:57.803Z,9.33
2019-01-17T00:06:33.904Z,9.05
2019-01-17T00:09:04.047Z,9.68
2019-01-17T00:11:36.523Z,9.60
2019-01-17T00:14:09.657Z,9.40
2019-01-17T00:16:42.664Z,9.30
2019-01-17T00:19:15.807Z,9.15
2019-01-17T00:22:02.274Z,9.38
2019-01-17T00:24:48.545Z,8.85
2019-01-17T00:27:24.342Z,9.57
2019-01-17T00:30:10.363Z,8.98
2019-01-17T00:32:42.885Z,9.87
2019-01-17T00:35:22.097Z,8.63
2019-01-17T00:38:08.591Z,8.80
2019-01-17T00:40:50.517Z,7.87
2019-01-17T00:43:23.321Z,9.03
2019-01-17T00:45:53.383Z,8.23
2019-01-17T00:48:29.183Z,7.97
2019-01-17T00:50:59.231Z,7.30
2019-01-17T00:53:38.238Z,7.50
2019-01-17T00:56:24.953Z,7.33
2019-01-17T00:59:13.116Z,7.42
2019-01-17T01:01:55.164Z,7.22
2019-01-17T01:04:41.505Z,6.75
2019-01-17T01:07:29.829Z,7.05
2019-01-17T01:10:15.168Z,7.22
2019-01-17T01:12:45.215Z,7.12
2019-01-17T01:15:33.795Z,7.00
2019-01-17T01:18:06.662Z,6.87
2019-01-17T01:20:39.601Z,7.50
2019-01-17T01:23:09.705Z,6.55
2019-01-17T01:25:39.772Z,6.42
2019-01-17T01:28:12.584Z,7.20
2019-01-17T01:30:42.663Z,6.80
2019-01-17T01:33:28.618Z,6.28
2019-01-17T01:35:58.662Z,6.28
2019-01-17T01:38:28.869Z,6.87
2019-01-17T01:41:01.782Z,6.33
2019-01-17T01:43:34.961Z,6.30
2019-01-17T01:46:20.480Z,6.20
2019-01-17T01:48:50.513Z,6.20
2019-01-17T01:51:29.962Z,5.87
2019-01-17T01:53:58.385Z,5.90
2019-01-17T01:56:26.823Z,5.58
2019-01-17T01:58:55.261Z,5.72
2019-01-17T02:01:23.668Z,5.87
2019-01-17T02:03:52.085Z,5.90
2019-01-17T02:06:20.543Z,6.00
2019-01-17T02:08:48.958Z,5.37
2019-01-17T02:11:17.417Z,4.62
2019-01-17T02:13:46.048Z,5.28
2019-01-17T02:16:14.467Z,5.28
2019-01-17T02:18:42.883Z,5.22
2019-01-17T02:21:11.379Z,4.58
2019-01-17T02:23:39.931Z,4.55
2019-01-17T02:26:08.340Z,4.22
2019-01-17T02:28:36.775Z,4.70
2019-01-17T02:31:05.325Z,4.60
2019-01-17T02:33:33.717Z,4.12
2019-01-17T02:36:02.253Z,4.22
2019-01-17T02:38:30.665Z,4.22
2019-01-17T02:40:59.077Z,4.30
2019-01-17T02:43:27.641Z,3.50
2019-01-17T02:45:56.068Z,3.60
2019-01-17T02:48:24.484Z,3.58
2019-01-17T02:50:53.069Z,3.00
2019-01-17T02:53:21.474Z,3.30
2019-01-17T02:55:49.895Z,2.90
2019-01-17T02:58:18.300Z,2.98
2019-01-17T03:00:46.799Z,2.70
2019-01-17T03:03:15.205Z,2.37
2019-01-17T03:05:43.649Z,2.20
2019-01-17T03:08:12.093Z,2.02
2019-01-17T03:10:40.587Z,2.20
2019-01-17T03:13:09.035Z,2.00
2019-01-17T03:15:37.534Z,1.85
2019-01-17T03:18:06.055Z,1.90
2019-01-17T03:20:34.483Z,2.00
2019-01-17T03:23:02.960Z,1.75
2019-01-17T03:25:31.388Z,1.50
2019-01-17T03:27:59.793Z,1.77
2019-01-17T03:30:46.436Z,1.50
2019-01-17T03:33:14.873Z,1.75
2019-01-17T03:35:43.309Z,1.60
2019-01-17T03:38:11.721Z,1.70
2019-01-17T03:40:40.169Z,1.52
2019-01-17T03:43:08.613Z,1.75
2019-01-17T03:45:37.032Z,1.70
2019-01-17T03:48:05.533Z,1.57
2019-01-17T03:50:34.030Z,1.60
2019-01-17T03:53:02.417Z,1.80
2019-01-17T03:55:30.832Z,1.52
2019-01-17T03:57:59.251Z,1.87
2019-01-17T04:00:27.674Z,1.60
2019-01-17T04:02:56.103Z,1.82
2019-01-17T04:05:24.614Z,1.80
2019-01-17T04:07:53.041Z,2.00
2019-01-17T04:10:21.523Z,2.40
2019-01-17T04:12:50.059Z,2.00
2019-01-17T04:15:18.491Z,1.80
2019-01-17T04:17:46.881Z,2.23
2019-01-17T04:20:16.440Z,1.90
2019-01-17T04:22:44.906Z,2.03
2019-01-17T04:25:13.377Z,1.97
2019-01-17T04:27:41.961Z,2.30
2019-01-17T04:30:13.187Z,1.70
2019-01-17T04:32:41.601Z,2.02
2019-01-17T04:35:10.261Z,2.17
2019-01-17T04:37:38.667Z,2.40
2019-01-17T04:40:10.043Z,2.45
2019-01-17T04:42:38.462Z,2.55
2019-01-17T04:45:09.231Z,2.40
2019-01-17T04:47:37.763Z,2.20
2019-01-17T04:50:09.321Z,2.17
2019-01-17T04:52:37.778Z,2.30
2019-01-17T04:55:08.083Z,2.60
2019-01-17T04:57:36.569Z,2.75
2019-01-17T05:00:11.173Z,2.33
2019-01-17T05:02:39.631Z,2.20
2019-01-17T05:05:08.383Z,2.50
2019-01-17T05:07:36.832Z,2.47
2019-01-17T05:10:07.980Z,2.30
2019-01-17T05:12:36.506Z,2.42
2019-01-17T05:15:06.471Z,2.50
2019-01-17T05:17:34.961Z,2.40
2019-01-17T05:20:04.291Z,2.45
2019-01-17T05:22:32.694Z,2.50
2019-01-17T05:25:01.083Z,2.27
2019-01-17T05:27:29.607Z,2.67
2019-01-17T05:29:58.084Z,2.60
2019-01-17T05:32:26.535Z,2.60
2019-01-17T05:34:54.927Z,2.60
2019-01-17T05:37:23.320Z,2.55
2019-01-17T05:39:51.859Z,2.55
2019-01-17T05:42:20.275Z,2.52
2019-01-17T05:44:48.757Z,2.72
2019-01-17T05:47:17.399Z,2.47
2019-01-17T05:49:45.810Z,3.17
2019-01-17T05:52:14.230Z,2.70
2019-01-17T05:54:42.743Z,3.00
2019-01-17T05:57:11.331Z,2.77
2019-01-17T05:59:39.737Z,4.13
2019-01-17T06:02:08.295Z,4.53
2019-01-17T06:04:36.787Z,6.67
2019-01-17T06:07:05.330Z,3.25
2019-01-17T06:09:33.777Z,3.13
2019-01-17T06:12:02.263Z,3.70
2019-01-17T06:14:30.721Z,3.33
2019-01-17T06:16:59.279Z,3.20
2019-01-17T06:19:27.748Z,3.50
2019-01-17T06:21:56.353Z,3.43
2019-01-17T06:24:24.747Z,3.75
2019-01-17T06:26:53.320Z,3.77
2019-01-17T06:29:21.750Z,3.83
2019-01-17T06:31:50.254Z,4.10
2019-01-17T06:34:18.765Z,3.60
2019-01-17T06:36:47.185Z,3.87
2019-01-17T06:39:15.664Z,4.07
2019-01-17T06:41:44.192Z,4.30
2019-01-17T06:44:12.745Z,4.20
2019-01-17T06:46:41.875Z,4.40
2019-01-17T06:49:10.284Z,4.67
2019-01-17T06:51:38.803Z,4.70
2019-01-17T06:54:07.247Z,3.95
2019-01-17T06:56:35.767Z,4.95
2019-01-17T06:59:04.390Z,4.72
2019-01-17T07:01:32.846Z,4.40
2019-01-17T07:04:01.253Z,5.17
2019-01-17T07:06:29.819Z,5.40
2019-01-17T07:08:58.267Z,5.72
2019-01-17T07:11:26.743Z,5.20
2019-01-17T07:13:55.255Z,5.17
2019-01-17T07:16:23.695Z,6.10
2019-01-17T07:18:52.259Z,5.78
2019-01-17T07:21:20.700Z,6.15
2019-01-17T07:23:49.257Z,5.85
2019-01-17T07:26:17.733Z,6.47
2019-01-17T07:28:46.236Z,5.97
2019-01-17T07:31:14.743Z,6.22
2019-01-17T07:33:43.209Z,6.20
2019-01-17T07:36:11.773Z,6.60
2019-01-17T07:38:40.242Z,5.97
2019-01-17T07:41:08.871Z,6.50
2019-01-17T07:43:37.289Z,5.65
2019-01-17T07:46:05.849Z,6.47
2019-01-17T07:48:34.303Z,6.20
2019-01-17T07:51:02.761Z,6.80
2019-01-17T07:53:31.191Z,6.60
2019-01-17T07:55:59.596Z,6.60
2019-01-17T07:58:28.044Z,6.08
2019-01-17T08:00:56.480Z,6.85
2019-01-17T08:03:24.936Z,6.45
2019-01-17T08:05:53.407Z,6.17
2019-01-17T08:08:21.833Z,6.62
2019-01-17T08:10:50.239Z,6.15
2019-01-17T08:13:18.769Z,6.20
2019-01-17T08:15:47.289Z,6.75
2019-01-17T08:18:18.766Z,6.40
2019-01-17T08:20:45.949Z,6.53
2019-01-17T08:23:14.594Z,6.37
2019-01-17T08:25:43.019Z,5.90
2019-01-17T08:28:11.523Z,5.83
2019-01-17T08:30:39.997Z,5.87
2019-01-17T08:33:08.590Z,6.10
2019-01-17T08:35:37.022Z,6.10
2019-01-17T08:38:05.614Z,5.72
2019-01-17T08:40:34.103Z,5.85
2019-01-17T08:43:02.680Z,6.20
2019-01-17T08:45:31.095Z,5.85
2019-01-17T08:47:59.681Z,5.87
2019-01-17T08:50:28.339Z,6.30
2019-01-17T08:52:56.830Z,6.17
2019-01-17T08:55:25.395Z,6.50
2019-01-17T08:57:53.805Z,6.37
2019-01-17T09:00:24.589Z,5.97
2019-01-17T09:02:53.035Z,6.85
2019-01-17T09:05:21.676Z,6.10
2019-01-17T09:07:50.231Z,5.83
2019-01-17T09:10:21.105Z,5.20
2019-01-17T09:12:50.081Z,5.70
2019-01-17T09:15:21.417Z,5.72
2019-01-17T09:17:49.935Z,4.72
2019-01-17T09:20:18.509Z,4.40
2019-01-17T09:22:46.939Z,5.50
2019-01-17T09:25:16.891Z,3.85
2019-01-17T09:27:45.432Z,3.40
2019-01-17T09:30:21.526Z,3.23
2019-01-17T09:32:50.015Z,3.00
2019-01-17T09:35:19.308Z,3.15
2019-01-17T09:37:48.210Z,3.25
2019-01-17T09:40:22.086Z,2.47
2019-01-17T09:42:50.712Z,2.40
2019-01-17T09:45:19.353Z,2.20
2019-01-17T09:47:48.203Z,2.17
2019-01-17T09:50:21.687Z,2.20
2019-01-17T09:52:50.363Z,2.20
2019-01-17T09:55:18.954Z,2.33
2019-01-17T09:57:47.465Z,1.98
2019-01-17T10:00:21.844Z,1.77
2019-01-17T10:02:50.417Z,1.85
2019-01-17T10:05:19.073Z,1.55
2019-01-17T10:07:47.797Z,1.50
2019-01-17T10:10:21.395Z,1.67
2019-01-17T10:12:50.035Z,1.30
2019-01-17T10:15:24.149Z,1.40
2019-01-17T10:18:04.168Z,1.07
2019-01-17T10:20:44.584Z,1.00
2019-01-17T10:23:30.905Z,0.85
2019-01-17T10:26:04.937Z,0.88
2019-01-17T10:28:51.337Z,0.85
2019-01-17T10:31:28.628Z,0.70
2019-01-17T10:34:09.175Z,0.70
2019-01-17T10:36:49.581Z,0.60
2019-01-17T10:39:32.895Z,0.80
2019-01-17T10:42:13.495Z,0.78
2019-01-17T10:44:53.686Z,0.65
2019-01-17T10:47:27.737Z,0.70
2019-01-17T10:50:02.008Z,0.78
2019-01-17T10:52:42.633Z,0.90
2019-01-17T10:55:38.381Z,1.00
2019-01-17T10:58:24.597Z,1.10
2019-01-17T11:01:04.905Z,1.17
2019-01-17T11:03:55.877Z,1.20
2019-01-17T11:06:36.130Z,1.25
2019-01-17T11:09:32.086Z,1.10
2019-01-17T11:12:03.599Z,0.80
2019-01-17T11:14:44.431Z,1.10
2019-01-17T11:17:31.186Z,0.70
2019-01-17T11:20:18.983Z,0.60
2019-01-17T11:23:08.602Z,0.90
2019-01-17T11:25:59.687Z,0.88
2019-01-17T11:28:36.734Z,0.75
2019-01-17T11:31:17.147Z,0.90
2019-01-17T11:33:54.295Z,1.10
2019-01-17T11:36:25.867Z,2.15
2019-01-17T11:39:17.429Z,0.98
2019-01-17T11:42:05.621Z,0.90
2019-01-17T11:44:54.965Z,1.30
2019-01-17T11:47:38.973Z,0.90
2019-01-17T11:50:13.183Z,0.90
2019-01-17T11:52:56.329Z,1.00
2019-01-17T11:55:33.781Z,0.90
2019-01-17T11:58:23.368Z,1.05
2019-01-17T12:01:09.854Z,0.70
2019-01-17T12:03:58.691Z,0.90
2019-01-17T12:06:27.146Z,1.02
2019-01-17T12:08:55.549Z,0.83
2019-01-17T12:11:23.992Z,0.93
2019-01-17T12:13:52.424Z,0.80
2019-01-17T12:16:20.835Z,0.90
2019-01-17T12:18:49.268Z,0.90
2019-01-17T12:21:17.664Z,1.02
2019-01-17T12:23:46.224Z,0.87
2019-01-17T12:26:14.654Z,0.93
2019-01-17T12:28:43.065Z,0.80
2019-01-17T12:31:11.590Z,0.80
2019-01-17T12:33:39.981Z,0.98
2019-01-17T12:36:08.427Z,0.80
2019-01-17T12:38:36.837Z,0.60
2019-01-17T12:41:05.355Z,0.70
2019-01-17T12:43:33.751Z,0.90
2019-01-17T12:46:02.292Z,0.65
2019-01-17T12:48:30.691Z,0.78
2019-01-17T12:50:59.135Z,0.67
2019-01-17T12:53:27.582Z,0.70
2019-01-17T12:55:55.978Z,1.00
2019-01-17T12:58:24.410Z,0.80
2019-01-17T13:00:52.837Z,0.90
2019-01-17T13:03:21.243Z,0.80
2019-01-17T13:05:49.731Z,0.80
2019-01-17T13:08:18.166Z,0.98
2019-01-17T13:10:46.630Z,0.95
2019-01-17T13:13:15.045Z,1.00
2019-01-17T13:15:43.647Z,1.10
2019-01-17T13:18:12.186Z,1.05
2019-01-17T13:20:40.718Z,1.10
2019-01-17T13:23:09.107Z,1.27
2019-01-17T13:25:37.665Z,1.10
2019-01-17T13:28:06.271Z,1.30
2019-01-17T13:30:34.957Z,1.03
2019-01-17T13:33:03.596Z,1.35
2019-01-17T13:35:32.024Z,1.12
2019-01-17T13:38:00.439Z,0.82
2019-01-17T13:40:29.006Z,1.05
2019-01-17T13:42:57.429Z,1.00
2019-01-17T13:45:25.829Z,0.90
2019-01-17T13:47:54.296Z,1.00
2019-01-17T13:50:22.801Z,1.00
2019-01-17T13:52:51.253Z,1.00
2019-01-17T13:55:19.647Z,1.22
2019-01-17T13:57:48.221Z,0.90
2019-01-17T14:00:19.679Z,0.70
2019-01-17T14:02:48.107Z,0.90
2019-01-17T14:05:16.709Z,0.90
2019-01-17T14:07:45.889Z,0.98
2019-01-17T14:10:16.612Z,0.90
2019-01-17T14:12:45.009Z,0.80
2019-01-17T14:15:28.535Z,1.20
2019-01-17T14:17:57.013Z,0.88
2019-01-17T14:20:25.696Z,0.85
2019-01-17T14:22:54.161Z,1.10
2019-01-17T14:25:22.583Z,1.00
2019-01-17T14:27:51.000Z,1.00
2019-01-17T14:30:22.151Z,1.10
2019-01-17T14:32:50.707Z,0.90
2019-01-17T14:35:19.196Z,0.98
2019-01-17T14:37:47.616Z,1.05
2019-01-17T14:40:16.045Z,0.90
2019-01-17T14:42:44.523Z,3.60
2019-01-17T14:45:15.901Z,1.27
2019-01-17T14:47:44.335Z,0.83
2019-01-17T14:50:18.627Z,1.30
2019-01-17T14:52:47.049Z,0.85
2019-01-17T14:55:15.526Z,0.93
2019-01-17T14:57:44.223Z,1.30
2019-01-17T15:00:15.745Z,1.00
2019-01-17T15:02:44.162Z,1.65
2019-01-17T15:05:13.351Z,1.10
2019-01-17T15:07:41.930Z,1.20
2019-01-17T15:10:16.459Z,1.10
2019-01-17T15:12:44.850Z,1.20
2019-01-17T15:15:13.325Z,0.93
2019-01-17T15:17:41.784Z,1.17
2019-01-17T15:20:16.331Z,1.03
2019-01-17T15:22:45.966Z,0.90
2019-01-17T15:25:14.371Z,1.17
2019-01-17T15:27:42.807Z,1.62
2019-01-17T15:30:14.398Z,0.85
2019-01-17T15:32:43.036Z,0.95
2019-01-17T15:35:11.503Z,1.07
2019-01-17T15:37:39.914Z,0.90
2019-01-17T15:40:17.387Z,0.70
2019-01-17T15:42:45.910Z,0.65
2019-01-17T15:45:14.383Z,0.70
2019-01-17T15:47:42.886Z,0.72
2019-01-17T15:50:14.042Z,0.75
2019-01-17T15:52:42.679Z,0.60
2019-01-17T15:55:13.738Z,0.70
2019-01-17T15:57:42.487Z,0.80
2019-01-17T16:00:14.155Z,0.65
2019-01-17T16:02:42.985Z,0.82
2019-01-17T16:05:11.717Z,0.78
2019-01-17T16:07:40.195Z,0.70
2019-01-17T16:10:11.618Z,0.78
2019-01-17T16:12:40.141Z,0.70
2019-01-17T16:15:14.198Z,0.60
2019-01-17T16:17:42.631Z,0.60
2019-01-17T16:20:13.492Z,1.00
2019-01-17T16:22:42.081Z,1.00
2019-01-17T16:25:12.357Z,1.00
2019-01-17T16:27:41.988Z,1.00
2019-01-17T16:30:16.484Z,1.00
2019-01-17T16:32:44.960Z,0.70
2019-01-17T16:35:13.460Z,2.45
2019-01-17T16:37:42.197Z,1.57
2019-01-17T16:40:12.400Z,0.80
2019-01-17T16:42:40.844Z,1.00
2019-01-17T16:45:18.307Z,0.90
2019-01-17T16:47:46.871Z,0.93
2019-01-17T16:50:21.140Z,1.17
2019-01-17T16:52:49.580Z,1.00
2019-01-17T16:55:18.060Z,1.00
2019-01-17T16:57:49.098Z,1.17
2019-01-17T17:00:25.563Z,1.20
2019-01-17T17:02:53.958Z,1.15
2019-01-17T17:05:22.445Z,0.90
2019-01-17T17:07:51.074Z,0.80
2019-01-17T17:10:19.556Z,1.40
2019-01-17T17:12:47.964Z,1.00
2019-01-17T17:15:16.510Z,1.27
2019-01-17T17:17:45.064Z,1.30
2019-01-17T17:20:19.388Z,0.90
2019-01-17T17:22:47.831Z,1.10
2019-01-17T17:25:16.513Z,1.50
2019-01-17T17:27:45.009Z,1.60
2019-01-17T17:30:16.208Z,1.65
2019-01-17T17:32:44.969Z,1.50
2019-01-17T17:35:13.521Z,1.50
2019-01-17T17:37:42.053Z,1.35
2019-01-17T17:40:28.287Z,1.50
2019-01-17T17:42:56.923Z,1.35
2019-01-17T17:45:25.430Z,1.60
2019-01-17T17:47:54.413Z,1.90
2019-01-17T17:50:23.903Z,1.42
2019-01-17T17:52:52.432Z,1.72
2019-01-17T17:55:21.064Z,1.80
2019-01-17T17:57:50.680Z,1.40
2019-01-17T18:00:37.747Z,1.60
2019-01-17T18:03:06.382Z,2.10
2019-01-17T18:05:35.021Z,1.70
2019-01-17T18:08:03.740Z,2.25
2019-01-17T18:10:32.211Z,2.05
2019-01-17T18:13:00.813Z,1.67
2019-01-17T18:15:29.401Z,1.82
2019-01-17T18:17:59.407Z,1.62
2019-01-17T18:20:27.936Z,10.93
2019-01-17T18:22:56.538Z,1.62
2019-01-17T18:25:25.101Z,2.00
2019-01-17T18:27:53.718Z,1.55
2019-01-17T18:30:24.469Z,1.80
2019-01-17T18:32:53.100Z,2.23
2019-01-17T18:35:22.181Z,2.33
2019-01-17T18:37:50.878Z,2.60
2019-01-17T18:40:22.753Z,2.70
2019-01-17T18:42:51.374Z,2.60
2019-01-17T18:45:25.225Z,2.60
2019-01-17T18:47:53.905Z,2.72
2019-01-17T18:50:30.926Z,2.72
2019-01-17T18:52:59.612Z,2.73
2019-01-17T18:55:28.382Z,2.42
2019-01-17T18:57:57.338Z,2.10
2019-01-17T19:00:28.854Z,2.90
2019-01-17T19:02:57.913Z,1.90
2019-01-17T19:05:26.668Z,1.98
2019-01-17T19:07:55.902Z,2.10
2019-01-17T19:10:24.739Z,1.90
2019-01-17T19:12:53.769Z,1.92
2019-01-17T19:15:30.260Z,1.70
2019-01-17T19:17:58.985Z,1.75
2019-01-17T19:20:27.880Z,1.80
2019-01-17T19:22:56.557Z,1.95
2019-01-17T19:25:28.130Z,2.20
2019-01-17T19:27:56.715Z,2.40
2019-01-17T19:30:27.632Z,2.60
2019-01-17T19:32:56.422Z,2.50
2019-01-17T19:35:25.258Z,2.10
2019-01-17T19:37:54.080Z,1.95
2019-01-17T19:40:27.645Z,1.80
2019-01-17T19:42:56.364Z,1.30
2019-01-17T19:45:25.113Z,1.22
2019-01-17T19:47:54.231Z,1.80
2019-01-17T19:50:31.177Z,1.80
2019-01-17T19:53:00.016Z,2.47
2019-01-17T19:55:31.570Z,1.87
2019-01-17T19:58:00.333Z,2.00
2019-01-17T20:00:32.592Z,2.40
2019-01-17T20:03:02.088Z,1.93
2019-01-17T20:05:32.780Z,2.00
2019-01-17T20:08:01.414Z,1.95
2019-01-17T20:10:31.900Z,2.10
2019-01-17T20:13:00.714Z,2.00
2019-01-17T20:15:29.539Z,1.90
2019-01-17T20:17:59.859Z,1.60
2019-01-17T20:20:31.997Z,1.77
2019-01-17T20:22:58.993Z,1.80
2019-01-17T20:25:27.874Z,1.98
2019-01-17T20:27:58.024Z,1.60
2019-01-17T20:30:31.199Z,2.10
2019-01-17T20:33:01.197Z,2.12
2019-01-17T20:35:32.781Z,2.30
2019-01-17T20:38:04.493Z,1.80
2019-01-17T20:40:33.326Z,1.50
2019-01-17T20:43:03.626Z,1.67
2019-01-17T20:45:32.274Z,1.60
2019-01-17T20:48:00.961Z,1.25
2019-01-17T20:50:31.289Z,1.50
2019-01-17T20:52:59.993Z,1.60
2019-01-17T20:55:28.728Z,1.50
2019-01-17T20:57:57.444Z,1.50
2019-01-17T21:00:35.445Z,1.75
2019-01-17T21:03:05.724Z,1.50
2019-01-17T21:05:34.345Z,1.80
2019-01-17T21:08:02.931Z,1.80
2019-01-17T21:10:33.064Z,1.42
2019-01-17T21:13:03.799Z,1.30
2019-01-17T21:15:32.733Z,1.67
2019-01-17T21:18:01.420Z,2.00
2019-01-17T21:20:29.999Z,2.00
2019-01-17T21:22:58.652Z,1.90
2019-01-17T21:25:27.268Z,2.12
2019-01-17T21:27:55.947Z,2.20
2019-01-17T21:30:26.837Z,2.10
2019-01-17T21:32:55.512Z,1.80
2019-01-17T21:35:24.160Z,1.90
2019-01-17T21:37:53.893Z,2.20
2019-01-17T21:40:24.222Z,1.80
2019-01-17T21:42:52.945Z,2.20
2019-01-17T21:45:21.589Z,2.20
2019-01-17T21:47:50.173Z,2.05
2019-01-17T21:50:21.655Z,1.92
2019-01-17T21:52:50.219Z,2.27
2019-01-17T21:55:18.782Z,2.12
2019-01-17T21:57:47.512Z,2.02
2019-01-17T22:00:30.672Z,2.02
2019-01-17T22:02:59.316Z,2.62
2019-01-17T22:05:31.043Z,3.58
2019-01-17T22:07:59.519Z,2.87
2019-01-17T22:10:27.993Z,2.58
2019-01-17T22:12:56.474Z,2.20
2019-01-17T22:15:27.156Z,2.20
2019-01-17T22:17:55.904Z,2.30
2019-01-17T22:20:24.500Z,2.42
2019-01-17T22:22:52.988Z,2.60
2019-01-17T22:25:21.789Z,2.33
2019-01-17T22:27:52.015Z,2.22
2019-01-17T22:30:29.370Z,2.58
2019-01-17T22:32:58.030Z,2.37
2019-01-17T22:35:26.659Z,2.62
2019-01-17T22:37:55.199Z,2.60
2019-01-17T22:40:23.676Z,2.58
2019-01-17T22:42:52.114Z,2.85
2019-01-17T22:45:26.263Z,2.27
2019-01-17T22:47:54.935Z,2.80
2019-01-17T22:50:23.410Z,2.83
2019-01-17T22:52:52.186Z,2.80
2019-01-17T22:55:20.867Z,2.67
2019-01-17T22:57:49.437Z,2.70
2019-01-17T23:00:51.728Z,2.75
2019-01-17T23:03:23.253Z,2.77
2019-01-17T23:05:51.921Z,2.80
2019-01-17T23:08:20.363Z,2.50
2019-01-17T23:10:48.848Z,2.75
2019-01-17T23:13:17.363Z,2.60
2019-01-17T23:15:45.831Z,2.75
2019-01-17T23:18:14.244Z,2.55
2019-01-17T23:20:42.667Z,2.50
2019-01-17T23:23:12.164Z,2.60
2019-01-17T23:25:40.590Z,2.35
2019-01-17T23:28:09.024Z,2.67
2019-01-17T23:30:37.576Z,1.77
2019-01-17T23:33:06.396Z,1.50
2019-01-17T23:35:34.985Z,1.50
2019-01-17T23:38:03.476Z,1.35
2019-01-17T23:40:31.884Z,1.30
2019-01-17T23:43:00.314Z,1.50
2019-01-17T23:45:28.880Z,1.20
2019-01-17T23:47:57.310Z,1.22
2019-01-17T23:50:25.881Z,1.35
2019-01-17T23:52:54.471Z,1.27
2019-01-17T23:55:22.910Z,1.20
2019-01-17T23:57:51.527Z,1.30
